Time;durP1;ratioP1;P1;durP2;ratioP2;P2;SDS_P1;SDS_P2;PMS_P1;PMS_P2;Temp;Humidity;BMP_temperature;BMP_pressure;BME280_temperature;BME280_humidity;BME280_pressure;Samples;Min_cycle;Max_cycle;Signal;HPM_P1;HPM_P2
2022/06/22 00:02:08;;;;;;;;;;;13.70;99.90;;;;;;5084683;28;20011;-75
2022/06/22 00:04:54;;;;;;;;;;;13.60;99.90;;;;;;5088573;28;19917;-75
2022/06/22 00:07:19;;;;;;;;;;;13.60;99.90;;;;;;5082205;28;19912;-75
2022/06/22 00:09:46;;;;;;;;;;;13.50;99.90;;;;;;5082886;28;19919;-75
2022/06/22 00:12:23;;;;;;;;;;;13.40;99.90;;;;;;5078351;28;19916;-75
2022/06/22 00:14:49;;;;;;;;;;;13.20;99.90;;;;;;5075446;28;19999;-75
2022/06/22 00:17:17;;;;;;;;;;;13.20;99.90;;;;;;5081847;28;20003;-75
2022/06/22 00:19:43;;;;;;;;;;;13.20;99.90;;;;;;5073181;28;19912;-75
2022/06/22 00:22:26;;;;;;;;;;;13.20;99.90;;;;;;5082293;28;19916;-75
2022/06/22 00:25:11;;;;;;;;;;;13.10;99.90;;;;;;5077442;28;19912;-75
2022/06/22 00:27:37;;;;;;;;;;;13.00;99.90;;;;;;5085022;28;19912;-75
2022/06/22 00:30:20;;;;;;;;;;;13.00;99.90;;;;;;5085572;28;20333;-75
2022/06/22 00:33:12;;;;;;;;;;;13.20;99.90;;;;;;5094233;28;20491;-75
2022/06/22 00:35:46;;;;;;;;;;;13.20;99.90;;;;;;5084722;28;19916;-75
2022/06/22 00:38:32;;;;;;;;;;;13.10;99.90;;;;;;5087322;28;19943;-74
2022/06/22 00:41:03;;;;;;;;;;;13.00;99.90;;;;;;5069476;28;19927;-75
2022/06/22 00:43:31;;;;;;;;;;;12.80;99.90;;;;;;5057972;28;19916;-75
2022/06/22 00:45:57;;;;;;;;;;;12.80;99.90;;;;;;5082697;28;20000;-74
2022/06/22 00:48:31;;;;;;;;;;;12.90;99.90;;;;;;5083065;28;19946;-75
2022/06/22 00:50:59;;;;;;;;;;;12.90;99.90;;;;;;5084244;28;19913;-75
2022/06/22 00:53:36;;;;;;;;;;;12.80;99.90;;;;;;5079204;28;19912;-75
2022/06/22 00:56:16;;;;;;;;;;;12.80;99.90;;;;;;5079241;28;19928;-74
2022/06/22 00:58:57;;;;;;;;;;;12.80;99.90;;;;;;5088712;28;20266;-74
2022/06/22 01:01:26;;;;;;;;;;;12.70;99.90;;;;;;5080867;28;19943;-74
2022/06/22 01:04:06;;;;;;;;;;;12.70;99.90;;;;;;5077460;28;20319;-74
2022/06/22 01:06:53;;;;;;;;;;;12.60;99.90;;;;;;5078177;28;19916;-74
2022/06/22 01:09:26;;;;;;;;;;;12.40;99.90;;;;;;5064051;28;19993;-74
2022/06/22 01:12:16;;;;;;;;;;;12.30;99.90;;;;;;5064575;28;19912;-74
2022/06/22 01:14:45;;;;;;;;;;;12.30;99.90;;;;;;5074458;28;19924;-74
2022/06/22 01:17:17;;;;;;;;;;;12.30;99.90;;;;;;5078803;28;20480;-74
2022/06/22 01:19:43;;;;;;;;;;;12.40;99.90;;;;;;5069177;28;20265;-74
2022/06/22 01:22:23;;;;;;;;;;;12.40;99.90;;;;;;5082354;28;19945;-73
2022/06/22 01:25:08;;;;;;;;;;;12.20;99.90;;;;;;5068929;28;19955;-74
2022/06/22 01:27:33;;;;;;;;;;;12.00;99.90;;;;;;5071140;28;19912;-74
2022/06/22 01:30:02;;;;;;;;;;;11.70;99.90;;;;;;5083090;28;19912;-74
2022/06/22 01:32:30;;;;;;;;;;;11.30;99.90;;;;;;5085439;28;20009;-74
2022/06/22 01:34:57;;;;;;;;;;;11.10;99.90;;;;;;5090476;28;19924;-74
2022/06/22 01:37:24;;;;;;;;;;;11.00;99.90;;;;;;5083450;28;19919;-74
2022/06/22 01:39:50;;;;;;;;;;;11.00;99.90;;;;;;5061619;28;19912;-74
2022/06/22 01:42:15;;;;;;;;;;;10.90;99.90;;;;;;5058038;28;19912;-73
2022/06/22 01:44:49;;;;;;;;;;;10.90;99.90;;;;;;5079892;28;19956;-74
2022/06/22 01:47:19;;;;;;;;;;;10.80;99.90;;;;;;5086909;28;19912;-74
2022/06/22 01:49:57;;;;;;;;;;;10.80;99.90;;;;;;5080073;28;19999;-74
2022/06/22 01:52:40;;;;;;;;;;;10.80;99.90;;;;;;5070645;28;19963;-74
2022/06/22 01:55:13;;;;;;;;;;;10.70;99.90;;;;;;5083650;28;19970;-74
2022/06/22 01:57:42;;;;;;;;;;;10.80;99.90;;;;;;5072060;28;19966;-74
2022/06/22 02:00:12;;;;;;;;;;;10.80;99.90;;;;;;5081919;28;19957;-74
2022/06/22 02:02:49;;;;;;;;;;;10.80;99.90;;;;;;5086662;28;19915;-74
2022/06/22 02:05:27;;;;;;;;;;;10.90;99.90;;;;;;5089893;28;19912;-74
2022/06/22 02:08:05;;;;;;;;;;;11.20;99.90;;;;;;5083969;28;19908;-73
2022/06/22 02:10:34;;;;;;;;;;;11.10;99.90;;;;;;5075674;28;19939;-74
2022/06/22 02:13:16;;;;;;;;;;;11.20;99.90;;;;;;5087469;28;19971;-74
2022/06/22 02:15:48;;;;;;;;;;;11.30;99.90;;;;;;5078257;28;19920;-74
2022/06/22 02:18:18;;;;;;;;;;;11.40;99.90;;;;;;5072267;28;20311;-73
2022/06/22 02:20:43;;;;;;;;;;;11.50;99.90;;;;;;5066941;28;19920;-74
2022/06/22 02:23:30;;;;;;;;;;;11.60;99.90;;;;;;5078676;28;19920;-74
2022/06/22 02:26:16;;;;;;;;;;;11.80;99.90;;;;;;5077657;28;19913;-73
2022/06/22 02:28:43;;;;;;;;;;;11.80;99.90;;;;;;5076631;28;20014;-73
2022/06/22 02:31:09;;;;;;;;;;;11.70;99.90;;;;;;5070969;28;20235;-73
2022/06/22 02:33:37;;;;;;;;;;;11.60;99.90;;;;;;5083272;28;19927;-74
2022/06/22 02:36:03;;;;;;;;;;;11.50;99.90;;;;;;5087904;28;19917;-75
2022/06/22 02:38:29;;;;;;;;;;;11.50;99.90;;;;;;5064627;28;19917;-74
2022/06/22 02:46:28;;;;;;;;;;;11.30;99.90;;;;;;5086102;28;19957;-74
2022/06/22 02:48:57;;;;;;;;;;;11.30;99.90;;;;;;5081280;28;20057;-74
2022/06/22 02:51:27;;;;;;;;;;;11.30;99.90;;;;;;5094173;28;19908;-74
2022/06/22 02:53:54;;;;;;;;;;;11.30;99.90;;;;;;5074981;28;20211;-74
2022/06/22 02:56:22;;;;;;;;;;;11.10;99.90;;;;;;5090061;28;19916;-75
2022/06/22 02:58:49;;;;;;;;;;;11.10;99.90;;;;;;5086232;28;19955;-74
2022/06/22 03:01:19;;;;;;;;;;;11.10;99.90;;;;;;5084793;28;19916;-75
2022/06/22 03:03:48;;;;;;;;;;;11.10;99.90;;;;;;5079235;28;19920;-74
2022/06/22 03:06:16;;;;;;;;;;;11.10;99.90;;;;;;5075497;28;19919;-74
2022/06/22 03:08:42;;;;;;;;;;;11.20;99.90;;;;;;5067586;28;19943;-75
2022/06/22 03:11:09;;;;;;;;;;;11.00;99.90;;;;;;5081815;28;19908;-75
2022/06/22 03:13:56;;;;;;;;;;;10.80;99.90;;;;;;5082338;28;19925;-75
2022/06/22 03:16:27;;;;;;;;;;;10.50;99.90;;;;;;5083170;28;19916;-75
2022/06/22 03:18:54;;;;;;;;;;;10.40;99.90;;;;;;5085219;28;19916;-75
2022/06/22 03:21:19;;;;;;;;;;;10.30;99.90;;;;;;5078402;28;20313;-75
2022/06/22 03:23:45;;;;;;;;;;;10.10;99.90;;;;;;5089431;28;19912;-75
2022/06/22 03:26:13;;;;;;;;;;;9.90;99.90;;;;;;5078598;28;19916;-75
2022/06/22 03:28:47;;;;;;;;;;;9.80;99.90;;;;;;5075147;28;19916;-74
2022/06/22 03:31:23;;;;;;;;;;;9.80;99.90;;;;;;5078129;28;20321;-75
2022/06/22 03:33:49;;;;;;;;;;;9.70;99.90;;;;;;5071340;28;19959;-75
2022/06/22 03:36:17;;;;;;;;;;;9.60;99.90;;;;;;5074626;28;19954;-75
2022/06/22 03:38:48;;;;;;;;;;;9.60;99.90;;;;;;5091190;28;20303;-75
2022/06/22 03:41:17;;;;;;;;;;;9.70;99.90;;;;;;5091494;28;19916;-75
2022/06/22 03:43:48;;;;;;;;;;;9.80;99.90;;;;;;5089951;28;20307;-75
2022/06/22 03:46:26;;;;;;;;;;;10.00;99.90;;;;;;5066347;28;19921;-75
2022/06/22 03:48:57;;;;;;;;;;;10.20;99.90;;;;;;5090752;28;19947;-75
2022/06/22 03:51:27;;;;;;;;;;;10.30;99.90;;;;;;5088191;28;19962;-75
2022/06/22 03:53:56;;;;;;;;;;;10.30;99.90;;;;;;5089289;28;19959;-75
2022/06/22 03:56:24;;;;;;;;;;;10.30;99.90;;;;;;5089559;28;20268;-74
2022/06/22 03:58:51;;;;;;;;;;;10.30;99.90;;;;;;5089689;28;19921;-75
2022/06/22 04:01:17;;;;;;;;;;;10.30;99.90;;;;;;5091258;28;20011;-74
2022/06/22 04:03:43;;;;;;;;;;;10.40;99.90;;;;;;5086897;28;19958;-75
2022/06/22 04:06:13;;;;;;;;;;;10.50;99.90;;;;;;5087280;28;19916;-74
2022/06/22 04:08:40;;;;;;;;;;;10.60;99.90;;;;;;5083414;28;19931;-74
2022/06/22 04:11:06;;;;;;;;;;;10.60;99.90;;;;;;5087580;28;19989;-75
2022/06/22 04:13:37;;;;;;;;;;;10.60;99.90;;;;;;5088128;28;19931;-74
2022/06/22 04:16:06;;;;;;;;;;;10.70;99.90;;;;;;5090639;28;19951;-74
2022/06/22 04:18:40;;;;;;;;;;;10.80;99.90;;;;;;5081762;28;19916;-74
2022/06/22 04:21:07;;;;;;;;;;;10.90;99.90;;;;;;5074197;28;19912;-74
2022/06/22 04:24:00;;;;;;;;;;;10.90;99.90;;;;;;5074105;28;21930;-74
2022/06/22 04:26:28;;;;;;;;;;;11.20;99.90;;;;;;5072781;28;19955;-74
2022/06/22 04:28:57;;;;;;;;;;;11.30;99.90;;;;;;5081923;28;19963;-74
2022/06/22 04:31:46;;;;;;;;;;;11.40;99.90;;;;;;5095230;28;19920;-75
2022/06/22 04:34:16;;;;;;;;;;;11.50;99.90;;;;;;5083522;28;19924;-74
2022/06/22 04:36:41;;;;;;;;;;;11.60;99.90;;;;;;5089975;28;19942;-74
2022/06/22 04:39:14;;;;;;;;;;;11.60;99.90;;;;;;5091982;28;20299;-74
2022/06/22 04:41:41;;;;;;;;;;;11.80;99.90;;;;;;5063175;28;19916;-74
2022/06/22 04:44:33;;;;;;;;;;;11.90;99.90;;;;;;5075298;28;20295;-74
2022/06/22 04:47:01;;;;;;;;;;;12.00;99.90;;;;;;5088824;28;19929;-74
2022/06/22 04:49:31;;;;;;;;;;;12.10;99.90;;;;;;5083242;28;19912;-74
2022/06/22 04:51:59;;;;;;;;;;;12.30;99.90;;;;;;5094197;28;20004;-74
2022/06/22 04:54:31;;;;;;;;;;;12.40;99.90;;;;;;5091045;28;19920;-74
2022/06/22 04:56:58;;;;;;;;;;;12.70;99.90;;;;;;5083009;28;20284;-74
2022/06/22 04:59:24;;;;;;;;;;;12.80;99.90;;;;;;5082308;28;19916;-75
2022/06/22 05:01:52;;;;;;;;;;;12.80;99.90;;;;;;5092299;28;19919;-74
2022/06/22 05:04:27;;;;;;;;;;;12.80;99.90;;;;;;5072770;28;19937;-74
2022/06/22 05:07:19;;;;;;;;;;;12.80;99.90;;;;;;5094551;28;19962;-74
2022/06/22 05:09:47;;;;;;;;;;;12.90;99.90;;;;;;5088490;28;20368;-74
2022/06/22 05:12:18;;;;;;;;;;;13.10;99.90;;;;;;5091382;28;19915;-74
2022/06/22 05:14:44;;;;;;;;;;;13.10;99.90;;;;;;5093265;28;20410;-74
2022/06/22 05:17:14;;;;;;;;;;;13.30;99.90;;;;;;5089881;28;19916;-74
2022/06/22 05:19:47;;;;;;;;;;;13.50;99.90;;;;;;5081118;28;19919;-74
2022/06/22 05:22:14;;;;;;;;;;;13.60;99.90;;;;;;5090742;28;19916;-74
2022/06/22 05:24:43;;;;;;;;;;;13.60;99.90;;;;;;5094032;28;20258;-74
2022/06/22 05:27:10;;;;;;;;;;;13.70;99.90;;;;;;5079774;28;19923;-74
2022/06/22 05:29:38;;;;;;;;;;;13.80;99.90;;;;;;5091231;28;19969;-75
2022/06/22 05:32:08;;;;;;;;;;;13.90;99.90;;;;;;5088931;28;19923;-74
2022/06/22 05:34:36;;;;;;;;;;;14.00;99.90;;;;;;5087647;28;19952;-74
2022/06/22 05:37:31;;;;;;;;;;;14.00;99.90;;;;;;5070556;28;19959;-74
2022/06/22 05:39:57;;;;;;;;;;;14.00;99.90;;;;;;4978569;28;20000;-74
2022/06/22 05:42:24;;;;;;;;;;;14.10;99.90;;;;;;4981275;28;19997;-74
2022/06/22 05:44:51;;;;;;;;;;;14.10;99.90;;;;;;4979278;28;19937;-73
2022/06/22 05:47:28;;;;;;;;;;;14.20;99.90;;;;;;4980510;28;19964;-74
2022/06/22 05:49:53;;;;;;;;;;;14.30;99.90;;;;;;4981860;28;20310;-74
2022/06/22 05:52:22;;;;;;;;;;;14.40;99.90;;;;;;4984472;28;20009;-75
2022/06/22 05:55:14;;;;;;;;;;;14.40;99.90;;;;;;4978647;28;20037;-75
2022/06/22 05:57:49;;;;;;;;;;;14.50;99.90;;;;;;4971312;28;19961;-74
2022/06/22 06:00:19;;;;;;;;;;;14.60;99.90;;;;;;4965224;28;20278;-74
2022/06/22 06:02:50;;;;;;;;;;;14.60;99.90;;;;;;4977822;28;19975;-75
2022/06/22 06:05:28;;;;;;;;;;;14.70;99.90;;;;;;4982165;28;19914;-75
2022/06/22 06:07:55;;;;;;;;;;;14.80;99.90;;;;;;4981136;28;19914;-75
2022/06/22 06:10:30;;;;;;;;;;;14.80;99.90;;;;;;4981232;28;20429;-75
2022/06/22 06:12:55;;;;;;;;;;;15.00;99.90;;;;;;4978381;28;19984;-75
2022/06/22 06:15:21;;;;;;;;;;;14.90;99.90;;;;;;4976259;28;20325;-75
2022/06/22 06:17:48;;;;;;;;;;;14.90;99.90;;;;;;5068543;28;19913;-74
2022/06/22 06:20:20;;;;;;;;;;;14.90;99.90;;;;;;5069719;28;19916;-75
2022/06/22 06:22:46;;;;;;;;;;;15.00;99.90;;;;;;5089946;28;19912;-74
2022/06/22 06:28:05;;;;;;;;;;;15.30;99.90;;;;;;5084653;28;20085;-74
2022/06/22 06:30:58;;;;;;;;;;;15.30;99.90;;;;;;5062798;28;19959;-74
2022/06/22 06:33:34;;;;;;;;;;;15.40;99.90;;;;;;5089164;28;20211;-74
2022/06/22 06:36:00;;;;;;;;;;;15.40;99.90;;;;;;5089927;28;19924;-75
2022/06/22 06:38:40;;;;;;;;;;;15.50;99.90;;;;;;5072533;28;20036;-75
2022/06/22 06:41:09;;;;;;;;;;;15.70;99.90;;;;;;5086261;28;19912;-75
2022/06/22 06:43:56;;;;;;;;;;;15.90;99.90;;;;;;5078373;28;20330;-74
2022/06/22 06:46:29;;;;;;;;;;;16.00;99.90;;;;;;5081813;28;19920;-74
2022/06/22 06:49:15;;;;;;;;;;;16.20;99.90;;;;;;5085503;28;19918;-74
2022/06/22 06:51:46;;;;;;;;;;;16.20;99.90;;;;;;5080341;28;20201;-74
2022/06/22 06:54:21;;;;;;;;;;;16.10;99.90;;;;;;5067855;28;19928;-74
2022/06/22 06:56:56;;;;;;;;;;;16.10;99.90;;;;;;5086369;28;19995;-74
2022/06/22 06:59:24;;;;;;;;;;;16.20;99.90;;;;;;5083759;28;19920;-74
2022/06/22 07:01:50;;;;;;;;;;;16.30;99.90;;;;;;5083874;28;20270;-77
2022/06/22 07:04:18;;;;;;;;;;;16.40;99.90;;;;;;5081378;28;20007;-75
2022/06/22 07:06:45;;;;;;;;;;;16.40;99.90;;;;;;5070757;28;20286;-74
2022/06/22 07:09:16;;;;;;;;;;;16.60;99.90;;;;;;5084055;28;20219;-74
2022/06/22 07:11:48;;;;;;;;;;;16.60;99.90;;;;;;5071574;28;19924;-74
2022/06/22 07:14:14;;;;;;;;;;;16.80;99.90;;;;;;5086118;28;19931;-74
2022/06/22 07:16:40;;;;;;;;;;;16.90;99.90;;;;;;5070612;28;19920;-75
2022/06/22 07:19:11;;;;;;;;;;;16.90;99.90;;;;;;5087374;28;19912;-75
2022/06/22 07:21:46;;;;;;;;;;;17.10;99.90;;;;;;5082844;28;20006;-73
2022/06/22 07:24:12;;;;;;;;;;;17.10;99.90;;;;;;5086041;28;20312;-74
2022/06/22 07:26:40;;;;;;;;;;;17.20;99.90;;;;;;5090371;28;19928;-74
2022/06/22 07:29:26;;;;;;;;;;;17.20;99.90;;;;;;5080686;28;19932;-74
2022/06/22 07:31:59;;;;;;;;;;;17.30;99.90;;;;;;5050587;28;19955;-74
2022/06/22 07:34:29;;;;;;;;;;;17.50;99.90;;;;;;5077667;28;20008;-74
2022/06/22 07:36:58;;;;;;;;;;;17.70;99.90;;;;;;5084815;28;19916;-74
2022/06/22 07:39:42;;;;;;;;;;;17.80;99.80;;;;;;5078449;28;20306;-75
2022/06/22 07:42:11;;;;;;;;;;;17.90;99.90;;;;;;5057744;28;19912;-75
2022/06/22 07:44:37;;;;;;;;;;;17.90;99.90;;;;;;5082519;28;19913;-74
2022/06/22 07:47:21;;;;;;;;;;;18.00;99.90;;;;;;5085892;28;19999;-74
2022/06/22 07:49:59;;;;;;;;;;;18.00;99.90;;;;;;5067316;28;19912;-74
2022/06/22 07:52:27;;;;;;;;;;;18.20;99.90;;;;;;5086365;28;20257;-73
2022/06/22 07:55:01;;;;;;;;;;;18.30;99.90;;;;;;5078602;28;19924;-73
2022/06/22 07:57:34;;;;;;;;;;;18.30;99.90;;;;;;5086893;28;19919;-73
2022/06/22 08:00:07;;;;;;;;;;;18.50;99.90;;;;;;5085554;28;19916;-73
2022/06/22 08:02:38;;;;;;;;;;;18.60;99.90;;;;;;5086633;28;20317;-74
2022/06/22 08:05:10;;;;;;;;;;;18.70;99.90;;;;;;5081349;28;20041;-74
2022/06/22 08:07:39;;;;;;;;;;;18.90;99.90;;;;;;5085408;28;19912;-73
2022/06/22 08:10:05;;;;;;;;;;;19.10;99.90;;;;;;5087350;28;20239;-74
2022/06/22 08:12:58;;;;;;;;;;;19.20;99.90;;;;;;4977206;28;3046695;-73
2022/06/22 08:15:24;;;;;;;;;;;19.50;99.90;;;;;;5077140;28;19920;-73
2022/06/22 08:17:53;;;;;;;;;;;19.50;99.90;;;;;;5086761;28;20337;-78
2022/06/22 08:20:21;;;;;;;;;;;19.90;99.90;;;;;;5082040;28;19920;-74
2022/06/22 08:22:48;;;;;;;;;;;20.30;99.90;;;;;;5081864;28;19947;-74
2022/06/22 08:25:15;;;;;;;;;;;20.30;99.70;;;;;;5061669;28;19923;-73
2022/06/22 08:27:41;;;;;;;;;;;20.70;99.90;;;;;;5082239;28;20003;-73
2022/06/22 08:30:09;;;;;;;;;;;20.60;99.90;;;;;;5087866;28;20322;-73
2022/06/22 08:32:41;;;;;;;;;;;20.70;99.90;;;;;;5082167;28;19912;-75
2022/06/22 08:35:13;;;;;;;;;;;21.00;99.90;;;;;;5084723;28;20004;-82
2022/06/22 08:37:49;;;;;;;;;;;21.00;99.60;;;;;;5081580;28;20010;-80
2022/06/22 08:40:17;;;;;;;;;;;21.10;99.20;;;;;;5087572;28;20378;-81
2022/06/22 08:42:55;;;;;;;;;;;21.40;98.80;;;;;;5084652;28;20215;-79
2022/06/22 08:45:44;;;;;;;;;;;21.50;98.30;;;;;;5085677;28;19912;-76
2022/06/22 08:48:10;;;;;;;;;;;21.40;98.40;;;;;;5071256;28;19916;-81
2022/06/22 08:50:39;;;;;;;;;;;21.50;99.10;;;;;;5067191;28;19965;-77
2022/06/22 08:53:08;;;;;;;;;;;21.60;99.80;;;;;;5081641;28;20204;-77
2022/06/22 08:55:39;;;;;;;;;;;21.80;99.80;;;;;;5080661;28;20401;-78
2022/06/22 08:58:14;;;;;;;;;;;21.90;98.20;;;;;;5087307;28;19945;-83
2022/06/22 09:00:51;;;;;;;;;;;21.60;97.90;;;;;;5091925;28;19959;-88
2022/06/22 09:03:25;;;;;;;;;;;21.90;98.80;;;;;;5076994;28;19981;-75
2022/06/22 09:06:10;;;;;;;;;;;21.90;98.00;;;;;;5080666;28;19920;-77
2022/06/22 09:08:54;;;;;;;;;;;22.00;98.40;;;;;;5084033;28;19912;-77
2022/06/22 09:11:26;;;;;;;;;;;21.90;98.60;;;;;;5081744;28;20249;-78
2022/06/22 09:14:01;;;;;;;;;;;21.80;99.50;;;;;;5061436;28;19924;-77
2022/06/22 09:16:42;;;;;;;;;;;21.90;99.90;;;;;;5072721;28;19960;-77
2022/06/22 09:19:18;;;;;;;;;;;21.90;99.50;;;;;;5083005;28;20330;-81
2022/06/22 09:21:51;;;;;;;;;;;22.20;99.50;;;;;;5065313;28;20133;-82
2022/06/22 09:24:19;;;;;;;;;;;22.40;99.20;;;;;;5080161;28;19934;-78
2022/06/22 09:27:03;;;;;;;;;;;22.30;99.70;;;;;;5085828;28;19920;-76
2022/06/22 09:29:29;;;;;;;;;;;22.10;98.50;;;;;;5075567;28;19916;-78
2022/06/22 09:32:15;;;;;;;;;;;22.50;99.20;;;;;;5075030;28;20045;-82
2022/06/22 09:34:47;;;;;;;;;;;22.20;99.90;;;;;;5085939;28;19920;-77
2022/06/22 09:37:21;;;;;;;;;;;22.10;99.90;;;;;;5071673;28;19916;-80
2022/06/22 09:39:53;;;;;;;;;;;22.20;99.90;;;;;;5076948;28;19913;-75
2022/06/22 09:42:37;;;;;;;;;;;21.90;99.90;;;;;;5064841;28;19920;-79
2022/06/22 09:45:21;;;;;;;;;;;22.10;99.60;;;;;;5085179;28;20072;-75
2022/06/22 09:47:58;;;;;;;;;;;22.00;99.60;;;;;;5088905;28;19939;-75
2022/06/22 09:50:27;;;;;;;;;;;22.30;99.70;;;;;;5087684;28;19916;-78
2022/06/22 09:53:11;;;;;;;;;;;21.90;98.80;;;;;;5088782;28;20009;-76
2022/06/22 09:58:36;;;;;;;;;;;22.40;98.30;;;;;;5092268;28;19919;-77
2022/06/22 10:01:07;;;;;;;;;;;22.60;97.30;;;;;;5079978;28;19996;-77
2022/06/22 10:03:39;;;;;;;;;;;22.60;97.20;;;;;;5070866;28;19916;-77
2022/06/22 10:06:23;;;;;;;;;;;22.70;97.40;;;;;;5081107;28;19978;-75
2022/06/22 10:08:56;;;;;;;;;;;22.80;97.40;;;;;;5084249;28;19969;-75
2022/06/22 10:11:37;;;;;;;;;;;22.80;98.40;;;;;;5086580;28;19916;-77
2022/06/22 10:14:15;;;;;;;;;;;22.90;96.90;;;;;;5090706;28;20362;-77
2022/06/22 10:16:56;;;;;;;;;;;22.60;97.50;;;;;;5074080;28;19920;-75
2022/06/22 10:19:40;;;;;;;;;;;22.80;96.70;;;;;;5072965;28;20188;-75
2022/06/22 10:22:06;;;;;;;;;;;23.50;97.00;;;;;;5078546;28;19913;-78
2022/06/22 10:24:44;;;;;;;;;;;23.60;95.80;;;;;;5088796;28;20232;-77
2022/06/22 10:27:09;;;;;;;;;;;23.60;94.90;;;;;;5070746;28;19916;-79
2022/06/22 10:29:44;;;;;;;;;;;23.60;94.60;;;;;;5085949;28;20223;-76
2022/06/22 10:32:12;;;;;;;;;;;23.50;95.70;;;;;;5081192;28;19913;-76
2022/06/22 10:35:02;;;;;;;;;;;23.30;95.80;;;;;;5083445;28;19916;-81
2022/06/22 10:37:47;;;;;;;;;;;23.40;94.70;;;;;;5072508;28;19928;-78
2022/06/22 10:45:08;;;;;;;;;;;23.60;94.50;;;;;;5078871;28;20335;-80
2022/06/22 10:46:19;;;;;;;;;;;23.30;93.10;;;;;;5075638;28;19920;-75
2022/06/22 10:48:48;;;;;;;;;;;23.30;94.50;;;;;;5076663;28;20283;-84
2022/06/22 10:51:13;;;;;;;;;;;23.20;94.40;;;;;;5073654;28;19923;-75
2022/06/22 10:53:39;;;;;;;;;;;23.20;93.80;;;;;;5077944;28;19913;-77
2022/06/22 10:56:04;;;;;;;;;;;23.10;94.40;;;;;;5079696;28;20050;-75
2022/06/22 10:58:48;;;;;;;;;;;22.80;94.50;;;;;;5082054;28;19927;-76
2022/06/22 11:01:29;;;;;;;;;;;22.80;93.80;;;;;;5079399;28;19916;-74
2022/06/22 11:03:57;;;;;;;;;;;23.20;95.20;;;;;;5078017;28;20295;-74
2022/06/22 11:06:41;;;;;;;;;;;22.90;94.60;;;;;;5072153;28;19972;-75
2022/06/22 11:09:09;;;;;;;;;;;22.70;95.40;;;;;;5085404;28;20007;-80
2022/06/22 11:11:41;;;;;;;;;;;22.70;95.60;;;;;;5071891;28;19923;-74
2022/06/22 11:14:09;;;;;;;;;;;23.00;95.00;;;;;;5091032;28;20385;-76
2022/06/22 11:16:41;;;;;;;;;;;23.00;93.60;;;;;;5082919;28;20004;-78
2022/06/22 11:19:17;;;;;;;;;;;23.10;93.90;;;;;;5069279;28;19916;-74
2022/06/22 11:22:06;;;;;;;;;;;23.40;92.70;;;;;;5084973;28;19985;-75
2022/06/22 11:24:31;;;;;;;;;;;23.50;92.40;;;;;;5084264;28;19920;-75
2022/06/22 11:33:02;;;;;;;;;;;23.40;94.10;;;;;;5081591;28;19920;-75
2022/06/22 11:35:45;;;;;;;;;;;23.40;92.80;;;;;;5091438;28;19963;-75
2022/06/22 11:38:14;;;;;;;;;;;23.40;92.70;;;;;;5079745;28;19930;-73
2022/06/22 11:40:45;;;;;;;;;;;23.40;93.00;;;;;;5079070;28;19920;-74
2022/06/22 11:43:37;;;;;;;;;;;23.50;94.10;;;;;;5080693;28;20219;-78
2022/06/22 11:46:21;;;;;;;;;;;23.60;92.10;;;;;;5043832;28;19916;-75
2022/06/22 11:48:47;;;;;;;;;;;23.80;92.70;;;;;;5079475;28;19959;-78
2022/06/22 11:51:31;;;;;;;;;;;23.60;91.90;;;;;;5086095;28;20257;-77
2022/06/22 11:54:13;;;;;;;;;;;24.00;92.30;;;;;;5083792;28;20352;-74
2022/06/22 11:56:51;;;;;;;;;;;24.00;92.20;;;;;;5083353;28;19916;-76
2022/06/22 11:59:43;;;;;;;;;;;24.30;90.40;;;;;;5083111;28;19935;-75
2022/06/22 12:02:23;;;;;;;;;;;24.70;92.10;;;;;;5063027;28;20313;-76
2022/06/22 12:05:08;;;;;;;;;;;24.70;91.30;;;;;;5078598;28;20311;-73
2022/06/22 12:07:45;;;;;;;;;;;25.20;92.10;;;;;;5067209;28;19916;-75
2022/06/22 12:10:23;;;;;;;;;;;25.10;90.60;;;;;;5080957;28;20305;-74
2022/06/22 12:13:01;;;;;;;;;;;24.70;92.40;;;;;;5076642;28;19921;-75
2022/06/22 12:15:33;;;;;;;;;;;24.60;92.00;;;;;;5084641;28;19959;-74
2022/06/22 12:18:02;;;;;;;;;;;24.60;91.40;;;;;;5077551;28;20250;-77
2022/06/22 12:20:30;;;;;;;;;;;24.70;91.90;;;;;;5060844;28;20003;-77
2022/06/22 12:23:15;;;;;;;;;;;24.80;92.20;;;;;;5070401;28;20020;-74
2022/06/22 12:25:50;;;;;;;;;;;24.90;90.50;;;;;;5082652;28;19962;-74
2022/06/22 12:28:22;;;;;;;;;;;25.00;91.40;;;;;;5092050;28;19912;-75
2022/06/22 12:30:50;;;;;;;;;;;25.00;90.70;;;;;;5084501;28;20295;-75
2022/06/22 12:33:26;;;;;;;;;;;24.70;91.30;;;;;;5072827;28;20038;-75
2022/06/22 12:36:04;;;;;;;;;;;24.50;91.20;;;;;;5085766;28;19920;-77
2022/06/22 12:38:36;;;;;;;;;;;24.40;88.60;;;;;;5067867;28;19916;-75
2022/06/22 12:41:01;;;;;;;;;;;24.20;85.50;;;;;;5077170;28;19908;-75
2022/06/22 12:43:33;;;;;;;;;;;23.90;87.00;;;;;;5082627;28;19969;-75
2022/06/22 12:46:17;;;;;;;;;;;24.00;86.30;;;;;;5085699;28;19913;-79
2022/06/22 12:48:53;;;;;;;;;;;24.10;87.50;;;;;;5077596;28;19932;-76
2022/06/22 12:51:26;;;;;;;;;;;24.10;84.90;;;;;;5081851;28;20376;-75
2022/06/22 12:53:54;;;;;;;;;;;24.00;86.60;;;;;;5088841;28;19977;-75
2022/06/22 12:56:30;;;;;;;;;;;23.90;82.50;;;;;;5085733;28;19916;-75
2022/06/22 12:59:00;;;;;;;;;;;24.00;81.30;;;;;;5079105;28;19913;-75
2022/06/22 13:01:25;;;;;;;;;;;23.70;79.90;;;;;;5080019;28;19999;-74
2022/06/22 13:04:02;;;;;;;;;;;23.60;83.10;;;;;;5069712;28;20007;-74
2022/06/22 13:06:30;;;;;;;;;;;24.00;87.30;;;;;;5071517;28;19912;-77
2022/06/22 13:08:57;;;;;;;;;;;23.80;81.60;;;;;;5083314;28;19979;-75
2022/06/22 13:11:25;;;;;;;;;;;23.50;78.60;;;;;;5076207;28;19924;-75
2022/06/22 13:13:51;;;;;;;;;;;23.70;83.20;;;;;;5083481;28;20317;-85
2022/06/22 13:16:19;;;;;;;;;;;23.60;84.80;;;;;;5084280;28;20019;-78
2022/06/22 13:18:48;;;;;;;;;;;23.80;82.10;;;;;;5062004;28;19963;-75
2022/06/22 13:21:17;;;;;;;;;;;24.00;79.20;;;;;;5065672;28;20291;-75
2022/06/22 13:23:45;;;;;;;;;;;24.20;84.60;;;;;;5089943;28;19997;-74
2022/06/22 13:26:11;;;;;;;;;;;24.00;90.30;;;;;;5090376;28;19912;-75
2022/06/22 13:28:51;;;;;;;;;;;24.10;89.60;;;;;;5087479;28;20214;-76
2022/06/22 13:31:26;;;;;;;;;;;23.90;87.40;;;;;;5087452;28;19916;-73
2022/06/22 13:33:55;;;;;;;;;;;24.00;89.70;;;;;;5087394;28;19922;-75
2022/06/22 13:36:24;;;;;;;;;;;23.70;90.10;;;;;;5071739;28;20016;-77
2022/06/22 13:38:56;;;;;;;;;;;23.70;91.00;;;;;;5085232;28;19921;-77
2022/06/22 13:41:40;;;;;;;;;;;23.90;89.70;;;;;;5085642;28;19919;-76
2022/06/22 13:44:14;;;;;;;;;;;23.80;90.20;;;;;;5080594;28;19965;-77
2022/06/22 13:46:49;;;;;;;;;;;23.90;92.60;;;;;;5076916;28;19922;-75
2022/06/22 13:49:41;;;;;;;;;;;24.10;91.70;;;;;;5086329;28;19916;-74
2022/06/22 13:52:21;;;;;;;;;;;24.20;92.60;;;;;;5067713;28;19916;-76
2022/06/22 13:54:46;;;;;;;;;;;24.30;92.20;;;;;;5076550;28;19921;-78
2022/06/22 13:57:12;;;;;;;;;;;24.10;92.40;;;;;;5082637;28;19927;-76
2022/06/22 13:59:43;;;;;;;;;;;23.80;92.00;;;;;;5079140;28;19958;-76
2022/06/22 14:02:25;;;;;;;;;;;23.50;92.40;;;;;;5059420;28;19916;-76
2022/06/22 14:04:56;;;;;;;;;;;23.60;92.60;;;;;;5077525;28;19948;-75
2022/06/22 14:07:42;;;;;;;;;;;23.50;92.00;;;;;;5071733;28;19912;-75
2022/06/22 14:10:27;;;;;;;;;;;23.40;92.50;;;;;;5081954;28;19958;-74
2022/06/22 14:13:13;;;;;;;;;;;23.10;92.90;;;;;;5067270;28;20254;-75
2022/06/22 14:15:45;;;;;;;;;;;23.10;92.80;;;;;;5035730;28;20255;-75
2022/06/22 14:18:29;;;;;;;;;;;23.40;93.50;;;;;;5068872;28;19919;-77
2022/06/22 14:21:07;;;;;;;;;;;23.50;92.80;;;;;;5081487;28;19966;-77
2022/06/22 14:23:34;;;;;;;;;;;23.50;92.90;;;;;;5083355;28;19923;-76
2022/06/22 14:26:18;;;;;;;;;;;23.30;93.70;;;;;;5091758;28;19912;-79
2022/06/22 14:28:50;;;;;;;;;;;23.30;93.50;;;;;;5079699;28;19916;-76
2022/06/22 14:31:18;;;;;;;;;;;23.40;93.20;;;;;;5074560;28;19912;-76
2022/06/22 14:33:53;;;;;;;;;;;23.70;93.20;;;;;;5085193;28;20302;-76
2022/06/22 14:36:25;;;;;;;;;;;23.70;93.50;;;;;;5079537;28;19927;-76
2022/06/22 14:39:10;;;;;;;;;;;23.60;93.00;;;;;;5087140;28;19916;-77
2022/06/22 14:41:44;;;;;;;;;;;23.90;95.80;;;;;;5082862;28;19919;-78
2022/06/22 14:44:21;;;;;;;;;;;24.10;92.40;;;;;;5077530;28;19917;-75
2022/06/22 14:47:23;;;;;;;;;;;24.00;92.30;;;;;;5085400;28;20461;-76
2022/06/22 14:50:07;;;;;;;;;;;23.90;93.10;;;;;;5025111;28;20007;-75
2022/06/22 14:52:40;;;;;;;;;;;23.90;94.80;;;;;;5083972;28;19916;-76
2022/06/22 14:55:06;;;;;;;;;;;24.10;91.90;;;;;;5082286;28;19927;-76
2022/06/22 14:57:34;;;;;;;;;;;23.90;92.20;;;;;;5072479;28;19917;-75
2022/06/22 15:00:02;;;;;;;;;;;23.90;92.80;;;;;;5087166;28;19919;-75
2022/06/22 15:02:43;;;;;;;;;;;23.80;92.60;;;;;;5081561;28;19957;-76
2022/06/22 15:05:20;;;;;;;;;;;23.90;92.70;;;;;;5083960;28;19938;-74
2022/06/22 15:07:51;;;;;;;;;;;24.00;91.40;;;;;;5074223;28;20372;-75
2022/06/22 15:10:20;;;;;;;;;;;24.10;91.20;;;;;;5092226;28;20223;-74
2022/06/22 15:13:02;;;;;;;;;;;24.10;93.00;;;;;;5091525;28;19916;-77